createdAt,value
2023-02-01T00:13:01.904Z,3.97
2023-02-01T00:28:06.409Z,4.00
2023-02-01T00:43:10.684Z,3.87
2023-02-01T00:58:15.221Z,3.93
2023-02-01T01:13:19.354Z,3.70
2023-02-01T01:28:24.672Z,3.40
2023-02-01T01:43:48.654Z,3.20
2023-02-01T01:58:54.779Z,3.30
2023-02-01T02:13:59.668Z,3.00
2023-02-01T02:29:29.982Z,3.10
2023-02-01T02:45:07.475Z,2.57
2023-02-01T03:00:32.190Z,3.17
2023-02-01T03:15:43.252Z,2.90
2023-02-01T03:30:48.200Z,2.73
2023-02-01T03:45:54.971Z,2.50
2023-02-01T04:01:01.249Z,2.40
2023-02-01T04:16:08.323Z,2.17
2023-02-01T04:31:13.069Z,3.23
2023-02-01T04:46:17.676Z,3.60
2023-02-01T05:01:22.659Z,4.30
2023-02-01T05:16:27.413Z,3.70
2023-02-01T05:31:32.387Z,4.67
2023-02-01T05:46:39.482Z,5.10
2023-02-01T06:01:44.011Z,4.37
2023-02-01T06:16:48.345Z,4.37
2023-02-01T06:31:53.156Z,3.80
2023-02-01T06:46:57.253Z,3.93
2023-02-01T07:02:01.942Z,3.87
2023-02-01T07:17:06.109Z,3.60
2023-02-01T07:32:10.399Z,3.20
2023-02-01T07:47:15.460Z,3.43
2023-02-01T08:02:19.919Z,4.50
2023-02-01T08:17:24.273Z,3.10
2023-02-01T08:32:28.669Z,3.33
2023-02-01T08:47:33.100Z,3.30
2023-02-01T09:02:37.949Z,3.60
2023-02-01T09:17:43.665Z,2.63
2023-02-01T09:32:48.113Z,3.00
2023-02-01T09:48:14.055Z,3.10
2023-02-01T10:03:18.488Z,3.10
2023-02-01T10:18:40.531Z,3.20
2023-02-01T10:33:46.701Z,3.40
2023-02-01T10:48:52.111Z,2.97
2023-02-01T11:03:57.721Z,3.03
2023-02-01T11:19:02.968Z,2.90
2023-02-01T11:34:09.627Z,2.90
2023-02-01T11:49:27.097Z,2.97
2023-02-01T12:04:47.643Z,2.67
2023-02-01T12:20:20.326Z,3.13
2023-02-01T12:35:34.449Z,2.57
2023-02-01T12:50:45.872Z,2.57
2023-02-01T13:05:56.786Z,2.60
2023-02-01T13:21:10.169Z,2.77
2023-02-01T13:36:36.087Z,2.13
2023-02-01T13:51:47.771Z,2.50
2023-02-01T14:06:56.921Z,2.40
2023-02-01T14:22:23.304Z,2.93
2023-02-01T14:37:27.499Z,3.00
2023-02-01T14:52:36.649Z,2.70
2023-02-01T15:07:40.438Z,3.70
2023-02-01T15:22:54.987Z,3.90
2023-02-01T15:38:19.556Z,3.07
2023-02-01T15:53:25.941Z,3.10
2023-02-01T16:08:33.848Z,3.33
2023-02-01T16:23:38.610Z,2.70
2023-02-01T16:38:43.239Z,3.30
2023-02-01T16:53:54.368Z,3.00
2023-02-01T17:09:04.031Z,3.40
2023-02-01T17:24:08.424Z,3.70
2023-02-01T17:39:33.992Z,3.37
2023-02-01T17:54:38.560Z,2.70
2023-02-01T18:09:42.822Z,3.27
2023-02-01T18:24:47.046Z,6.97
2023-02-01T18:39:51.417Z,2.90
2023-02-01T18:54:59.909Z,3.70
2023-02-01T19:10:07.056Z,2.67
2023-02-01T19:25:22.067Z,2.50
2023-02-01T19:40:29.563Z,3.17
2023-02-01T19:55:34.751Z,3.43
2023-02-01T20:10:44.799Z,6.77
2023-02-01T20:25:49.983Z,7.60
2023-02-01T20:40:53.820Z,10.60
2023-02-01T20:55:59.024Z,9.93
2023-02-01T21:11:10.870Z,10.40
2023-02-01T21:26:16.545Z,10.80
2023-02-01T21:41:41.435Z,10.90
2023-02-01T21:56:45.670Z,10.13
2023-02-01T22:11:50.153Z,9.50
2023-02-01T22:26:54.823Z,8.70
2023-02-01T22:41:59.257Z,8.90
2023-02-01T22:57:03.927Z,5.50
2023-02-01T23:12:08.255Z,2.67
2023-02-01T23:27:13.383Z,2.60
2023-02-01T23:42:17.284Z,2.90
2023-02-01T23:57:21.637Z,2.70
